createdAt,value
2018-01-01T00:00:44.025Z,3.30
2018-01-01T00:03:10.211Z,3.70
2018-01-01T00:05:37.209Z,3.90
2018-01-01T00:08:03.387Z,2.83
2018-01-01T00:10:29.619Z,3.40
2018-01-01T00:12:55.845Z,2.87
2018-01-01T00:15:22.051Z,2.83
2018-01-01T00:17:49.012Z,2.80
2018-01-01T00:20:15.219Z,2.80
2018-01-01T00:22:41.646Z,3.10
2018-01-01T00:25:07.828Z,2.23
2018-01-01T00:27:34.771Z,2.90
2018-01-01T00:30:01.689Z,2.70
2018-01-01T00:32:27.891Z,2.37
2018-01-01T00:34:54.070Z,2.30
2018-01-01T00:37:21.009Z,3.47
2018-01-01T00:39:47.187Z,3.57
2018-01-01T00:42:13.359Z,3.40
2018-01-01T00:44:39.558Z,3.63
2018-01-01T00:47:05.739Z,3.90
2018-01-01T00:49:32.691Z,3.23
2018-01-01T00:52:00.033Z,3.07
2018-01-01T00:54:26.959Z,3.00
2018-01-01T00:56:53.172Z,3.37
2018-01-01T00:59:19.346Z,3.93
2018-01-01T01:01:46.295Z,3.27
2018-01-01T01:04:13.211Z,3.53
2018-01-01T01:06:39.419Z,3.23
2018-01-01T01:09:05.595Z,3.40
2018-01-01T01:11:32.566Z,4.13
2018-01-01T01:13:58.751Z,4.10
2018-01-01T01:16:24.935Z,4.10
2018-01-01T01:18:51.169Z,4.17
2018-01-01T01:21:17.343Z,3.70
2018-01-01T01:23:44.287Z,4.47
2018-01-01T01:26:11.213Z,2.20
2018-01-01T01:28:37.435Z,1.57
2018-01-01T01:31:03.616Z,1.83
2018-01-01T01:33:29.828Z,1.30
2018-01-01T01:35:56.815Z,1.57
2018-01-01T01:38:23.015Z,1.30
2018-01-01T01:40:49.955Z,1.53
2018-01-01T01:43:16.879Z,1.43
2018-01-01T01:45:43.083Z,1.37
2018-01-01T01:48:09.263Z,1.47
2018-01-01T01:50:36.207Z,1.63
2018-01-01T01:53:03.129Z,1.30
2018-01-01T01:55:29.619Z,1.10
2018-01-01T01:57:55.823Z,1.70
2018-01-01T02:00:22.743Z,0.97
2018-01-01T02:02:49.696Z,1.43
2018-01-01T02:05:16.622Z,1.30
2018-01-01T02:07:42.827Z,1.17
2018-01-01T02:10:09.031Z,1.17
2018-01-01T02:12:35.275Z,1.30
2018-01-01T02:15:02.246Z,1.67
2018-01-01T02:17:28.882Z,1.90
2018-01-01T02:19:55.240Z,1.70
2018-01-01T02:22:21.451Z,0.90
2018-01-01T02:24:47.668Z,1.57
2018-01-01T02:27:13.867Z,2.10
2018-01-01T02:29:40.095Z,1.50
2018-01-01T02:32:18.575Z,1.40
2018-01-01T02:34:45.527Z,1.30
2018-01-01T02:37:12.460Z,1.50
2018-01-01T02:39:38.638Z,1.20
2018-01-01T02:42:04.840Z,1.63
2018-01-01T02:44:31.920Z,1.90
2018-01-01T02:46:58.227Z,2.30
2018-01-01T02:49:24.408Z,1.07
2018-01-01T02:51:50.607Z,2.47
2018-01-01T02:54:16.782Z,0.90
2018-01-01T02:56:42.979Z,1.40
2018-01-01T02:59:09.159Z,0.90
2018-01-01T03:01:36.108Z,1.30
2018-01-01T03:04:03.056Z,1.40
2018-01-01T03:06:29.986Z,1.20
2018-01-01T03:08:56.995Z,1.20
2018-01-01T03:11:23.220Z,1.63
2018-01-01T03:13:49.611Z,1.00
2018-01-01T03:16:16.540Z,1.03
2018-01-01T03:18:43.484Z,1.10
2018-01-01T03:21:09.663Z,0.70
2018-01-01T03:23:35.868Z,1.03
2018-01-01T03:26:02.044Z,1.13
2018-01-01T03:28:28.235Z,1.07
2018-01-01T03:30:54.467Z,1.20
2018-01-01T03:33:20.649Z,0.80
2018-01-01T03:35:46.847Z,1.63
2018-01-01T03:38:13.410Z,1.43
2018-01-01T03:40:39.616Z,1.60
2018-01-01T03:43:05.800Z,1.90
2018-01-01T03:45:32.003Z,1.70
2018-01-01T03:47:58.210Z,2.33
2018-01-01T03:50:24.387Z,1.67
2018-01-01T03:52:50.583Z,1.80
2018-01-01T03:55:17.506Z,2.10
2018-01-01T03:57:43.707Z,2.10
2018-01-01T04:00:09.906Z,3.27
2018-01-01T04:02:36.851Z,2.00
2018-01-01T04:05:03.771Z,2.47
2018-01-01T04:07:30.419Z,2.00
2018-01-01T04:09:56.619Z,1.10
2018-01-01T04:12:22.819Z,1.20
2018-01-01T04:14:49.800Z,1.40
2018-01-01T04:17:15.986Z,1.40
2018-01-01T04:19:42.191Z,1.40
2018-01-01T04:22:09.110Z,1.00
2018-01-01T04:24:35.315Z,1.57
2018-01-01T04:27:01.491Z,1.17
2018-01-01T04:29:28.440Z,1.40
2018-01-01T04:31:55.363Z,1.50
2018-01-01T04:34:21.546Z,2.70
2018-01-01T04:36:47.763Z,1.83
2018-01-01T04:39:13.947Z,1.37
2018-01-01T04:41:40.152Z,1.43
2018-01-01T04:44:06.363Z,2.33
2018-01-01T04:46:32.554Z,1.73
2018-01-01T04:48:59.487Z,1.30
2018-01-01T04:51:26.430Z,1.87
2018-01-01T04:53:52.611Z,2.27
2018-01-01T04:56:18.811Z,1.93
2018-01-01T04:58:45.754Z,1.90
2018-01-01T05:01:11.937Z,1.70
2018-01-01T05:03:38.140Z,1.97
2018-01-01T05:06:04.315Z,1.70
2018-01-01T05:08:30.515Z,1.57
2018-01-01T05:10:56.725Z,1.43
2018-01-01T05:13:22.927Z,1.13
2018-01-01T05:15:49.140Z,1.63
2018-01-01T05:18:16.063Z,1.70
2018-01-01T05:20:42.263Z,1.60
2018-01-01T05:23:08.435Z,1.57
2018-01-01T05:25:34.640Z,1.60
2018-01-01T05:28:00.819Z,2.23
2018-01-01T05:30:27.760Z,1.50
2018-01-01T05:32:54.703Z,2.23
2018-01-01T05:35:20.914Z,1.27
2018-01-01T05:37:47.090Z,1.40
2018-01-01T05:40:13.291Z,1.80
2018-01-01T05:42:40.247Z,1.83
2018-01-01T05:45:06.428Z,1.10
2018-01-01T05:47:32.627Z,1.57
2018-01-01T05:49:58.803Z,0.83
2018-01-01T05:52:25.007Z,1.60
2018-01-01T05:54:51.188Z,0.60
2018-01-01T05:57:17.383Z,0.50
2018-01-01T05:59:43.563Z,0.60
2018-01-01T06:02:09.760Z,0.70
2018-01-01T06:04:36.684Z,0.60
2018-01-01T06:07:02.894Z,0.70
2018-01-01T06:09:29.075Z,0.60
2018-01-01T06:11:55.284Z,0.60
2018-01-01T06:14:22.228Z,0.67
2018-01-01T06:16:49.155Z,0.70
2018-01-01T06:19:15.365Z,0.60
2018-01-01T06:21:41.616Z,0.77
2018-01-01T06:24:07.820Z,0.67
2018-01-01T06:26:33.999Z,0.50
2018-01-01T06:29:00.984Z,0.70
2018-01-01T06:31:27.199Z,0.70
2018-01-01T06:33:53.435Z,0.90
2018-01-01T06:36:19.636Z,0.50
2018-01-01T06:38:45.823Z,0.93
2018-01-01T06:41:12.027Z,0.60
2018-01-01T06:43:38.215Z,0.77
2018-01-01T06:46:05.163Z,0.80
2018-01-01T06:48:32.083Z,0.80
2018-01-01T06:50:59.051Z,0.80
2018-01-01T06:53:25.974Z,0.80
2018-01-01T06:55:52.184Z,0.80
2018-01-01T06:58:18.371Z,1.37
2018-01-01T07:00:44.555Z,0.97
2018-01-01T07:03:10.995Z,1.30
2018-01-01T07:05:37.175Z,1.20
2018-01-01T07:08:03.388Z,1.30
2018-01-01T07:10:29.588Z,1.00
2018-01-01T07:12:56.559Z,1.10
2018-01-01T07:15:22.738Z,1.10
2018-01-01T07:17:48.947Z,0.90
2018-01-01T07:20:15.127Z,1.10
2018-01-01T07:22:42.111Z,1.20
2018-01-01T07:25:08.315Z,1.10
2018-01-01T07:27:35.238Z,0.90
2018-01-01T07:30:01.443Z,1.20
2018-01-01T07:32:27.635Z,1.20
2018-01-01T07:34:53.838Z,1.10
2018-01-01T07:37:20.775Z,1.40
2018-01-01T07:39:47.723Z,1.50
2018-01-01T07:42:14.643Z,2.27
2018-01-01T07:44:40.831Z,1.27
2018-01-01T07:47:07.107Z,1.67
2018-01-01T07:49:33.287Z,1.20
2018-01-01T07:51:59.487Z,0.90
2018-01-01T07:54:26.414Z,1.93
2018-01-01T07:56:52.616Z,1.13
2018-01-01T07:59:18.803Z,1.10
2018-01-01T08:01:45.013Z,0.90
2018-01-01T08:04:11.935Z,0.83
2018-01-01T08:06:38.120Z,0.83
2018-01-01T08:09:04.323Z,0.70
2018-01-01T08:11:31.273Z,1.17
2018-01-01T08:13:58.215Z,0.87
2018-01-01T08:16:25.143Z,1.03
2018-01-01T08:18:51.348Z,0.93
2018-01-01T08:21:17.526Z,0.60
2018-01-01T08:23:43.731Z,0.80
2018-01-01T08:26:09.906Z,0.70
2018-01-01T08:28:36.099Z,1.10
2018-01-01T08:31:02.303Z,1.40
2018-01-01T08:33:28.483Z,0.80
2018-01-01T08:35:54.688Z,0.60
2018-01-01T08:38:21.614Z,1.03
2018-01-01T08:40:47.816Z,1.10
2018-01-01T08:43:13.999Z,0.70
2018-01-01T08:45:40.203Z,1.10
2018-01-01T08:48:07.139Z,0.70
2018-01-01T08:50:33.347Z,0.70
2018-01-01T08:52:59.527Z,0.90
2018-01-01T08:55:26.451Z,1.10
2018-01-01T08:57:52.652Z,0.83
2018-01-01T09:00:18.831Z,1.77
2018-01-01T09:02:45.033Z,0.70
2018-01-01T09:05:11.206Z,0.70
2018-01-01T09:07:37.403Z,0.77
2018-01-01T09:10:04.324Z,0.60
2018-01-01T09:12:30.551Z,0.90
2018-01-01T09:14:56.731Z,0.70
2018-01-01T09:17:22.902Z,0.97
2018-01-01T09:19:49.110Z,0.63
2018-01-01T09:22:15.291Z,0.70
2018-01-01T09:24:42.235Z,0.73
2018-01-01T09:27:09.160Z,2.50
2018-01-01T09:29:35.368Z,1.00
2018-01-01T09:32:08.692Z,0.93
2018-01-01T09:34:35.654Z,0.90
2018-01-01T09:37:02.604Z,0.80
2018-01-01T09:39:29.527Z,1.07
2018-01-01T09:41:57.211Z,1.00
2018-01-01T09:44:24.131Z,1.20
2018-01-01T09:46:50.336Z,0.87
2018-01-01T09:49:16.527Z,0.87
2018-01-01T09:51:42.735Z,0.50
2018-01-01T09:54:09.927Z,0.70
2018-01-01T09:56:36.127Z,0.80
2018-01-01T09:59:03.063Z,0.70
2018-01-01T10:01:29.986Z,0.73
2018-01-01T10:03:56.187Z,1.10
2018-01-01T10:06:22.418Z,0.77
2018-01-01T10:08:48.614Z,0.60
2018-01-01T10:11:14.819Z,1.17
2018-01-01T10:13:41.762Z,0.70
2018-01-01T10:16:08.682Z,1.00
2018-01-01T10:18:34.904Z,0.60
2018-01-01T10:21:01.091Z,0.67
2018-01-01T10:23:27.290Z,0.80
2018-01-01T10:25:54.222Z,0.60
2018-01-01T10:28:21.203Z,0.87
2018-01-01T10:30:47.411Z,0.73
2018-01-01T10:33:14.343Z,1.33
2018-01-01T10:35:40.587Z,0.70
2018-01-01T10:38:07.515Z,0.83
2018-01-01T10:40:33.700Z,0.50
2018-01-01T10:42:59.960Z,0.50
2018-01-01T10:45:26.147Z,0.83
2018-01-01T10:47:52.327Z,0.70
2018-01-01T10:50:18.552Z,0.60
2018-01-01T10:52:44.777Z,0.60
2018-01-01T10:55:10.955Z,0.63
2018-01-01T10:57:37.183Z,0.87
2018-01-01T11:00:03.430Z,0.50
2018-01-01T11:02:29.607Z,0.60
2018-01-01T11:04:56.615Z,0.70
2018-01-01T11:07:22.799Z,0.87
2018-01-01T11:09:49.766Z,1.43
2018-01-01T11:12:16.040Z,1.00
2018-01-01T11:14:42.222Z,0.90
2018-01-01T11:17:08.447Z,0.70
2018-01-01T11:19:35.624Z,0.60
2018-01-01T11:22:01.867Z,1.00
2018-01-01T11:24:28.043Z,0.97
2018-01-01T11:26:54.252Z,0.80
2018-01-01T11:29:20.483Z,0.60
2018-01-01T11:31:47.408Z,0.60
2018-01-01T11:34:13.639Z,0.70
2018-01-01T11:36:40.175Z,0.90
2018-01-01T11:39:07.186Z,0.73
2018-01-01T11:41:33.363Z,0.60
2018-01-01T11:43:59.667Z,0.80
2018-01-01T11:46:26.655Z,0.70
2018-01-01T11:48:53.007Z,0.70
2018-01-01T11:51:19.932Z,0.60
2018-01-01T11:53:46.179Z,0.67
2018-01-01T11:56:13.099Z,1.10
2018-01-01T11:58:39.283Z,0.80
2018-01-01T12:01:05.557Z,0.80
2018-01-01T12:03:31.781Z,0.90
2018-01-01T12:05:58.004Z,0.93
2018-01-01T12:08:24.243Z,0.70
2018-01-01T12:10:50.516Z,0.50
2018-01-01T12:13:16.732Z,0.70
2018-01-01T12:15:43.694Z,0.97
2018-01-01T12:18:09.935Z,0.60
2018-01-01T12:20:36.157Z,0.90
2018-01-01T12:23:02.425Z,0.70
2018-01-01T12:25:28.608Z,1.63
2018-01-01T12:27:54.838Z,0.57
2018-01-01T12:30:21.023Z,0.70
2018-01-01T12:32:47.966Z,0.70
2018-01-01T12:35:14.238Z,0.90
2018-01-01T12:37:40.419Z,0.80
2018-01-01T12:40:06.694Z,0.90
2018-01-01T12:42:32.927Z,0.80
2018-01-01T12:44:59.217Z,0.60
2018-01-01T12:47:25.442Z,0.60
2018-01-01T12:49:51.664Z,0.60
2018-01-01T12:52:17.941Z,0.90
2018-01-01T12:54:44.416Z,0.80
2018-01-01T12:57:10.603Z,0.60
2018-01-01T12:59:36.825Z,1.00
2018-01-01T13:02:03.935Z,0.90
2018-01-01T13:04:30.152Z,1.07
2018-01-01T13:06:56.363Z,1.33
2018-01-01T13:09:22.593Z,0.83
2018-01-01T13:11:48.824Z,0.50
2018-01-01T13:14:15.046Z,0.60
2018-01-01T13:16:41.618Z,0.70
2018-01-01T13:19:07.846Z,0.70
2018-01-01T13:21:34.030Z,0.80
2018-01-01T13:24:00.278Z,1.20
2018-01-01T13:26:26.455Z,0.67
2018-01-01T13:28:53.417Z,0.80
2018-01-01T13:31:20.803Z,0.80
2018-01-01T13:33:47.020Z,0.70
2018-01-01T13:36:13.236Z,0.93
2018-01-01T13:38:40.573Z,0.80
2018-01-01T13:41:07.541Z,1.37
2018-01-01T13:43:33.767Z,0.80
2018-01-01T13:46:00.758Z,0.80
2018-01-01T13:48:26.991Z,1.20
2018-01-01T13:50:53.262Z,0.90
2018-01-01T13:53:20.178Z,0.93
2018-01-01T13:55:46.362Z,1.10
2018-01-01T13:58:12.611Z,1.27
2018-01-01T14:00:38.874Z,0.77
2018-01-01T14:03:05.122Z,0.90
2018-01-01T14:05:32.965Z,1.23
2018-01-01T14:07:59.217Z,0.93
2018-01-01T14:10:26.138Z,1.20
2018-01-01T14:12:52.339Z,0.80
2018-01-01T14:15:18.518Z,1.10
2018-01-01T14:17:45.495Z,0.90
2018-01-01T14:20:11.671Z,0.90
2018-01-01T14:22:37.847Z,1.00
2018-01-01T14:25:04.043Z,0.90
2018-01-01T14:27:30.222Z,1.20
2018-01-01T14:29:56.423Z,1.13
2018-01-01T14:32:22.659Z,1.03
2018-01-01T14:34:49.006Z,0.80
2018-01-01T14:37:15.239Z,1.00
2018-01-01T14:39:41.439Z,1.10
2018-01-01T14:42:08.363Z,1.90
2018-01-01T14:44:35.113Z,1.17
2018-01-01T14:47:02.076Z,0.83
2018-01-01T14:49:28.259Z,1.40
2018-01-01T14:51:54.501Z,0.93
2018-01-01T14:54:22.163Z,2.27
2018-01-01T14:56:48.413Z,1.07
2018-01-01T14:59:15.386Z,1.00
2018-01-01T15:01:41.667Z,0.90
2018-01-01T15:04:07.926Z,0.90
2018-01-01T15:06:34.945Z,1.17
2018-01-01T15:09:01.203Z,1.00
2018-01-01T15:11:28.217Z,1.10
2018-01-01T15:13:54.411Z,1.30
2018-01-01T15:16:20.651Z,1.30
2018-01-01T15:18:46.893Z,1.00
2018-01-01T15:21:13.123Z,1.03
2018-01-01T15:23:39.377Z,2.13
2018-01-01T15:26:05.602Z,1.30
2018-01-01T15:28:33.328Z,0.80
2018-01-01T15:30:59.584Z,1.20
2018-01-01T15:33:26.607Z,0.87
2018-01-01T15:35:52.881Z,1.20
2018-01-01T15:38:19.850Z,1.00
2018-01-01T15:40:46.855Z,1.30
2018-01-01T15:43:13.083Z,1.30
2018-01-01T15:45:39.334Z,1.10
2018-01-01T15:48:05.561Z,1.43
2018-01-01T15:50:32.563Z,0.70
2018-01-01T15:52:58.820Z,0.87
2018-01-01T15:55:25.028Z,1.17
2018-01-01T15:57:51.276Z,1.10
2018-01-01T16:00:17.535Z,1.30
2018-01-01T16:02:44.501Z,1.20
2018-01-01T16:05:10.787Z,0.90
2018-01-01T16:07:37.020Z,1.00
2018-01-01T16:10:03.582Z,1.10
2018-01-01T16:12:30.544Z,1.27
2018-01-01T16:14:56.788Z,0.83
2018-01-01T16:17:23.029Z,1.10
2018-01-01T16:19:49.206Z,1.20
2018-01-01T16:22:15.486Z,1.40
2018-01-01T16:24:41.697Z,1.10
2018-01-01T16:27:07.947Z,1.00
2018-01-01T16:29:34.194Z,1.50
2018-01-01T16:32:00.417Z,1.10
2018-01-01T16:34:26.661Z,1.50
2018-01-01T16:36:53.006Z,1.03
2018-01-01T16:39:19.394Z,1.20
2018-01-01T16:41:45.634Z,1.70
2018-01-01T16:44:11.858Z,1.30
2018-01-01T16:46:38.110Z,1.63
2018-01-01T16:49:04.343Z,0.90
2018-01-01T16:51:30.609Z,1.10
2018-01-01T16:53:57.577Z,1.17
2018-01-01T16:56:23.787Z,1.00
2018-01-01T16:58:50.762Z,1.50
2018-01-01T17:01:17.009Z,1.20
2018-01-01T17:03:43.270Z,1.30
2018-01-01T17:06:09.518Z,1.40
2018-01-01T17:08:36.477Z,1.10
2018-01-01T17:11:02.724Z,1.27
2018-01-01T17:13:28.954Z,1.50
2018-01-01T17:15:55.186Z,1.00
2018-01-01T17:18:21.444Z,1.03
2018-01-01T17:20:48.454Z,1.00
2018-01-01T17:23:14.711Z,1.40
2018-01-01T17:25:41.014Z,0.90
2018-01-01T17:28:07.319Z,1.60
2018-01-01T17:30:33.630Z,1.27
2018-01-01T17:32:59.937Z,2.00
2018-01-01T17:35:26.246Z,1.60
2018-01-01T17:37:53.226Z,1.60
2018-01-01T17:40:19.479Z,1.60
2018-01-01T17:42:46.521Z,1.60
2018-01-01T17:45:13.121Z,1.20
2018-01-01T17:47:39.357Z,1.50
2018-01-01T17:50:05.686Z,1.43
2018-01-01T17:52:31.913Z,1.90
2018-01-01T17:54:58.194Z,1.53
2018-01-01T17:57:25.186Z,1.47
2018-01-01T17:59:51.526Z,1.53
2018-01-01T18:02:17.787Z,1.40
2018-01-01T18:04:44.127Z,1.10
2018-01-01T18:07:10.355Z,1.30
2018-01-01T18:09:37.334Z,1.80
2018-01-01T18:12:03.618Z,1.20
2018-01-01T18:14:29.855Z,1.53
2018-01-01T18:16:56.138Z,1.50
2018-01-01T18:19:22.370Z,1.17
2018-01-01T18:21:48.643Z,1.30
2018-01-01T18:24:14.865Z,1.70
2018-01-01T18:26:41.141Z,2.00
2018-01-01T18:29:07.367Z,1.63
2018-01-01T18:31:33.622Z,1.47
2018-01-01T18:33:59.879Z,2.50
2018-01-01T18:36:26.347Z,2.57
2018-01-01T18:38:53.323Z,2.27
2018-01-01T18:41:19.567Z,1.73
2018-01-01T18:43:45.817Z,2.33
2018-01-01T18:46:12.075Z,1.70
2018-01-01T18:48:39.051Z,1.60
2018-01-01T18:51:05.427Z,1.70
2018-01-01T18:53:31.659Z,1.53
2018-01-01T18:55:57.911Z,1.40
2018-01-01T18:58:24.896Z,1.33
2018-01-01T19:00:51.167Z,2.57
2018-01-01T19:03:17.418Z,1.67
2018-01-01T19:05:44.423Z,1.97
2018-01-01T19:08:10.693Z,1.60
2018-01-01T19:10:37.671Z,1.90
2018-01-01T19:13:03.954Z,1.60
2018-01-01T19:15:31.667Z,2.40
2018-01-01T19:17:57.889Z,1.60
2018-01-01T19:20:24.143Z,1.90
2018-01-01T19:22:50.689Z,1.57
2018-01-01T19:25:17.001Z,2.03
2018-01-01T19:27:43.226Z,1.47
2018-01-01T19:30:09.478Z,1.60
2018-01-01T19:32:35.710Z,1.40
2018-01-01T19:35:02.022Z,2.37
2018-01-01T19:37:28.258Z,1.60
2018-01-01T19:39:54.646Z,2.23
2018-01-01T19:42:21.654Z,1.40
2018-01-01T19:44:47.918Z,1.87
2018-01-01T19:47:15.152Z,1.30
2018-01-01T19:49:41.378Z,1.40
2018-01-01T19:52:07.638Z,1.77
2018-01-01T19:54:33.897Z,1.90
2018-01-01T19:57:00.160Z,1.63
2018-01-01T19:59:26.396Z,1.00
2018-01-01T20:01:52.723Z,1.83
2018-01-01T20:04:19.027Z,1.33
2018-01-01T20:06:45.398Z,1.40
2018-01-01T20:09:11.630Z,1.93
2018-01-01T20:11:37.941Z,1.40
2018-01-01T20:14:04.226Z,1.80
2018-01-01T20:16:30.650Z,0.80
2018-01-01T20:18:57.730Z,1.07
2018-01-01T20:21:23.958Z,1.50
2018-01-01T20:23:50.215Z,1.47
2018-01-01T20:26:16.447Z,1.63
2018-01-01T20:28:42.941Z,0.87
2018-01-01T20:31:09.502Z,1.90
2018-01-01T20:33:35.742Z,1.40
2018-01-01T20:36:02.002Z,2.20
2018-01-01T20:38:28.274Z,1.50
2018-01-01T20:40:54.522Z,1.73
2018-01-01T20:43:20.765Z,1.20
2018-01-01T20:45:47.035Z,1.37
2018-01-01T20:48:14.047Z,1.60
2018-01-01T20:50:41.094Z,1.50
2018-01-01T20:53:07.337Z,1.40
2018-01-01T20:55:33.610Z,1.83
2018-01-01T20:57:59.838Z,1.10
2018-01-01T21:00:26.124Z,1.10
2018-01-01T21:02:52.360Z,1.23
2018-01-01T21:05:18.634Z,1.20
2018-01-01T21:07:44.894Z,1.87
2018-01-01T21:10:11.153Z,1.27
2018-01-01T21:12:37.420Z,1.60
2018-01-01T21:15:03.654Z,1.47
2018-01-01T21:17:29.906Z,1.70
2018-01-01T21:19:56.139Z,1.20
2018-01-01T21:22:22.439Z,1.53
2018-01-01T21:24:48.676Z,1.27
2018-01-01T21:27:14.938Z,1.30
2018-01-01T21:29:41.171Z,1.70
2018-01-01T21:32:07.423Z,1.53
2018-01-01T21:34:33.678Z,1.63
2018-01-01T21:36:59.971Z,1.17
2018-01-01T21:39:26.211Z,1.30
2018-01-01T21:41:52.442Z,1.53
2018-01-01T21:44:18.694Z,1.77
2018-01-01T21:46:45.771Z,1.73
2018-01-01T21:49:12.024Z,1.57
2018-01-01T21:51:38.362Z,1.43
2018-01-01T21:54:04.622Z,3.40
2018-01-01T21:56:31.598Z,1.27
2018-01-01T21:58:58.062Z,1.70
2018-01-01T22:01:24.300Z,1.70
2018-01-01T22:03:50.567Z,1.83
2018-01-01T22:06:17.854Z,1.57
2018-01-01T22:08:44.081Z,1.00
2018-01-01T22:11:10.307Z,1.60
2018-01-01T22:13:36.590Z,1.90
2018-01-01T22:16:02.828Z,1.50
2018-01-01T22:18:29.802Z,1.50
2018-01-01T22:20:56.149Z,1.50
2018-01-01T22:23:22.658Z,2.20
2018-01-01T22:25:48.904Z,1.83
2018-01-01T22:28:15.835Z,1.80
2018-01-01T22:30:42.816Z,1.40
2018-01-01T22:33:09.074Z,1.70
2018-01-01T22:35:35.321Z,1.70
2018-01-01T22:38:02.322Z,2.40
2018-01-01T22:40:28.555Z,1.60
2018-01-01T22:42:54.811Z,2.37
2018-01-01T22:45:21.029Z,1.73
2018-01-01T22:47:47.286Z,1.97
2018-01-01T22:50:13.542Z,1.80
2018-01-01T22:52:39.778Z,1.60
2018-01-01T22:55:06.035Z,1.83
2018-01-01T22:57:32.349Z,2.87
2018-01-01T22:59:58.613Z,1.60
2018-01-01T23:02:24.846Z,1.87
2018-01-01T23:04:51.888Z,1.37
2018-01-01T23:07:18.167Z,2.20
2018-01-01T23:09:44.592Z,1.50
2018-01-01T23:12:11.570Z,1.60
2018-01-01T23:14:37.805Z,1.97
2018-01-01T23:17:04.062Z,2.07
2018-01-01T23:19:30.286Z,1.87
2018-01-01T23:21:56.544Z,1.43
2018-01-01T23:24:23.433Z,1.90
2018-01-01T23:26:50.493Z,1.67
2018-01-01T23:29:16.730Z,1.23
2018-01-01T23:31:43.074Z,1.30
2018-01-01T23:34:10.075Z,1.60
2018-01-01T23:36:36.626Z,1.50
2018-01-01T23:39:02.919Z,1.33
2018-01-01T23:41:29.977Z,1.40
2018-01-01T23:43:56.969Z,1.87
2018-01-01T23:46:23.238Z,1.40
2018-01-01T23:48:49.498Z,1.30
2018-01-01T23:51:15.731Z,1.47
2018-01-01T23:53:42.030Z,1.40
2018-01-01T23:56:09.007Z,1.70
2018-01-01T23:58:35.278Z,1.33
